Wilson Observed Data For Previous 48 Hours

Caption
Day and Hour Reservoir Elevation (behind dam)* Tailwater Elevation (below dam)* Average Hourly Discharge*
4/22/2018 1 AM CDT 506.90 416.82 71,413
4/22/2018 2 AM CDT 506.86 416.78 71,503
4/22/2018 3 AM CDT 506.80 416.78 71,533
4/22/2018 4 AM CDT 506.67 416.75 71,491
4/22/2018 5 AM CDT 506.63 416.76 71,447
4/22/2018 6 AM CDT 506.52 416.70 71,087
4/22/2018 7 AM CDT 506.40 417.06 73,909
4/22/2018 8 AM CDT 506.38 416.96 74,880
4/22/2018 9 AM CDT 506.36 417.00 76,602
4/22/2018 10 AM CDT 506.34 417.06 76,459
4/22/2018 11 AM CDT 506.41 417.07 75,037
4/22/2018 12 PM CDT 506.36 417.05 76,147
4/22/2018 1 PM CDT 506.39 416.89 73,503
4/22/2018 2 PM CDT 506.42 417.00 73,411
4/22/2018 3 PM CDT 506.45 416.91 73,890
4/22/2018 4 PM CDT 506.48 417.01 75,047
4/22/2018 5 PM CDT 506.54 417.04 75,806
4/22/2018 6 PM CDT 506.57 417.08 75,505
4/22/2018 7 PM CDT 506.64 417.07 75,895
4/22/2018 8 PM CDT 506.69 417.29 78,344
4/22/2018 9 PM CDT 506.73 417.21 77,480
4/22/2018 10 PM CDT 506.80 417.19 76,079
4/22/2018 11 PM CDT 506.85 417.26 76,268
4/23/2018 12 AM CDT 506.91 417.05 71,582
4/23/2018 1 AM CDT 506.99 417.94 86,132
4/23/2018 2 AM CDT 506.93 418.00 87,503
4/23/2018 3 AM CDT 506.95 418.06 87,512
4/23/2018 4 AM CDT 507.05 418.13 87,601
4/23/2018 5 AM CDT 507.05 418.09 87,588
4/23/2018 6 AM CDT 507.08 417.42 84,076
4/23/2018 7 AM CDT 507.14 417.22 72,103
4/23/2018 8 AM CDT 507.33 417.20 71,917
4/23/2018 9 AM CDT 507.45 417.19 71,821
4/23/2018 10 AM CDT 507.59 417.28 71,763
4/23/2018 11 AM CDT 507.77 417.61 75,871
4/23/2018 12 PM CDT 507.91 418.55 97,989
4/23/2018 1 PM CDT 507.78 419.47 112,958
4/23/2018 2 PM CDT 507.64 420.15 129,362
4/23/2018 3 PM CDT 507.63 420.51 134,678
4/23/2018 4 PM CDT 507.42 420.49 134,239
4/23/2018 5 PM CDT 507.36 421.31 149,387
4/23/2018 6 PM CDT 507.37 421.15 147,632
4/23/2018 7 PM CDT 507.35 421.19 145,678
4/23/2018 8 PM CDT 507.32 421.00 143,983
4/23/2018 9 PM CDT 507.25 420.98 143,965
4/23/2018 10 PM CDT 507.20 421.01 143,907
4/23/2018 11 PM CDT 507.10 421.04 143,764
4/24/2018 12 AM CDT 506.99 421.06 143,288
4/24/2018 1 AM CDT 507.02 421.05 143,205
4/24/2018 2 AM CDT 506.95 421.06 143,176
4/24/2018 3 AM CDT 506.98 421.08 143,250
4/24/2018 4 AM CDT 506.97 421.11 143,308
4/24/2018 5 AM CDT 506.99 421.13 143,359
4/24/2018 6 AM CDT 506.96 421.19 143,326
4/24/2018 7 AM CDT 506.96 421.24 143,418
4/24/2018 8 AM CDT 506.94 421.26 141,197
4/24/2018 9 AM CDT 506.97 421.19 140,432
4/24/2018 10 AM CDT 506.99 421.13 141,249
4/24/2018 11 AM CDT 506.96 421.16 140,561
4/24/2018 12 PM CDT 507.03 420.79 127,389
4/24/2018 1 PM CDT 507.12 421.10 129,228
4/24/2018 2 PM CDT 507.14 421.19 136,324
4/24/2018 3 PM CDT 507.16 421.30 136,536
4/24/2018 4 PM CDT 507.21 421.23 137,040
4/24/2018 5 PM CDT 507.17 421.10 128,845
4/24/2018 6 PM CDT 507.23 421.08 128,685
4/24/2018 7 PM CDT 507.22 421.06 128,736
4/24/2018 8 PM CDT 507.25 421.10 129,322
4/24/2018 9 PM CDT 507.26 421.10 129,203

Elevations are in feet above sea level. Discharges are in cubic feet per second and are reported at the end of the hour.